createdAt,value
2023-03-15T00:01:33.432Z,100154.50
2023-03-15T00:06:34.148Z,100143.63
2023-03-15T00:11:31.175Z,100145.75
2023-03-15T00:16:32.340Z,100137.22
2023-03-15T00:21:29.608Z,100125.78
2023-03-15T00:26:28.662Z,100126.66
2023-03-15T00:31:38.076Z,100121.94
2023-03-15T00:36:35.131Z,100118.47
2023-03-15T00:41:33.217Z,100110.59
2023-03-15T00:46:31.335Z,100097.16
2023-03-15T00:51:28.000Z,100099.34
2023-03-15T00:56:26.848Z,100088.56
2023-03-15T01:01:25.126Z,100077.69
2023-03-15T01:06:25.113Z,100076.56
2023-03-15T01:11:23.699Z,100066.59
2023-03-15T01:16:20.997Z,100070.34
2023-03-15T01:21:20.937Z,100074.47
2023-03-15T01:26:18.315Z,100062.22
2023-03-15T01:31:19.704Z,100053.47
2023-03-15T01:36:17.315Z,100054.38
2023-03-15T01:41:16.974Z,100041.59
2023-03-15T01:46:27.247Z,100041.97
2023-03-15T01:51:37.723Z,100032.53
2023-03-15T01:56:37.441Z,100032.50
2023-03-15T02:01:38.091Z,100022.31
2023-03-15T02:06:35.300Z,100034.47
2023-03-15T02:11:34.860Z,100034.66
2023-03-15T02:16:33.782Z,100040.91
2023-03-15T02:21:43.093Z,100030.16
2023-03-15T02:26:43.125Z,100024.78
2023-03-15T02:31:42.583Z,100024.34
2023-03-15T02:36:39.883Z,100026.59
2023-03-15T02:41:39.288Z,100021.22
2023-03-15T02:46:36.665Z,100016.97
2023-03-15T02:51:35.710Z,100020.88
2023-03-15T02:56:32.989Z,100023.19
2023-03-15T03:01:31.334Z,100030.03
2023-03-15T03:06:36.029Z,100048.13
2023-03-15T03:11:35.848Z,100050.63
2023-03-15T03:16:32.852Z,100054.53
2023-03-15T03:21:29.710Z,100043.69
2023-03-15T03:26:27.349Z,100034.59
2023-03-15T03:31:30.558Z,100041.81
2023-03-15T03:36:35.095Z,100043.88
2023-03-15T03:41:32.156Z,100037.31
2023-03-15T03:46:32.352Z,100036.38
2023-03-15T03:51:29.290Z,100034.25
2023-03-15T03:56:26.112Z,100026.03
2023-03-15T04:01:23.101Z,100023.97
2023-03-15T04:06:23.136Z,100028.69
2023-03-15T04:11:26.344Z,100017.56
2023-03-15T04:16:30.478Z,100009.00
2023-03-15T04:21:36.627Z,100009.00
2023-03-15T04:26:50.352Z,100012.66
2023-03-15T04:32:08.725Z,100017.25
2023-03-15T04:37:20.560Z,100017.19
2023-03-15T04:42:32.269Z,100016.31
2023-03-15T04:47:30.708Z,100019.56
2023-03-15T04:52:41.365Z,100017.66
2023-03-15T04:57:54.853Z,100012.94
2023-03-15T05:03:03.886Z,100011.25
2023-03-15T05:08:42.081Z,100006.56
2023-03-15T05:14:07.205Z,100004.97
2023-03-15T05:19:05.307Z,99997.28
2023-03-15T05:24:23.179Z,99979.34
2023-03-15T05:29:30.220Z,99972.31
2023-03-15T05:34:44.954Z,99972.56
2023-03-15T05:39:55.926Z,99977.91
2023-03-15T05:45:19.388Z,99977.78
2023-03-15T05:50:30.861Z,99970.81
2023-03-15T05:55:54.260Z,99983.06
2023-03-15T06:00:57.506Z,99983.78
2023-03-15T06:06:21.262Z,99993.63
2023-03-15T06:11:22.941Z,99979.19
2023-03-15T06:17:07.215Z,99975.13
2023-03-15T06:22:06.471Z,99963.44
2023-03-15T06:27:21.348Z,99965.22
2023-03-15T06:32:19.589Z,99964.03
2023-03-15T06:37:34.562Z,99956.81
2023-03-15T06:42:32.472Z,99951.75
2023-03-15T06:47:37.278Z,99962.41
2023-03-15T06:52:38.285Z,99954.69
2023-03-15T06:57:36.762Z,99961.09
2023-03-15T07:02:42.674Z,99958.16
2023-03-15T07:07:50.983Z,99969.97
2023-03-15T07:12:57.565Z,99952.16
2023-03-15T07:17:57.579Z,99945.06
2023-03-15T07:28:59.815Z,99954.50
2023-03-15T07:33:56.808Z,99939.63
2023-03-15T07:39:04.024Z,99934.00
2023-03-15T07:49:39.224Z,99939.63
2023-03-15T07:55:02.519Z,99921.47
2023-03-15T08:00:24.190Z,99909.78
2023-03-15T08:05:41.040Z,99912.31
2023-03-15T08:10:46.066Z,99912.03
2023-03-15T08:15:57.570Z,99900.25
2023-03-15T08:21:24.701Z,99895.69
2023-03-15T08:26:45.596Z,99890.44
2023-03-15T08:32:13.426Z,99884.97
2023-03-15T08:37:15.360Z,99887.41
2023-03-15T08:48:09.316Z,99896.03
2023-03-15T08:53:31.328Z,99906.47
2023-03-15T08:58:40.516Z,99916.41
2023-03-15T09:03:50.327Z,99911.75
2023-03-15T09:09:05.977Z,99905.94
2023-03-15T09:14:44.184Z,99911.91
2023-03-15T09:20:28.883Z,99899.13
2023-03-15T09:25:46.000Z,99901.19
2023-03-15T09:30:54.003Z,99909.09
2023-03-15T09:35:57.452Z,99899.63
2023-03-15T09:41:09.218Z,99892.03
2023-03-15T09:46:44.676Z,99865.03
2023-03-15T09:51:58.961Z,99875.59
2023-03-15T09:57:19.273Z,99875.66
2023-03-15T10:02:31.086Z,99877.22
2023-03-15T10:07:27.777Z,99885.03
2023-03-15T10:12:29.089Z,99885.47
2023-03-15T10:17:32.089Z,99890.53
2023-03-15T10:22:30.625Z,99857.25
2023-03-15T10:27:36.605Z,99878.19
2023-03-15T10:32:37.521Z,99860.38
2023-03-15T10:37:35.773Z,99861.22
2023-03-15T10:42:33.287Z,99868.84
2023-03-15T10:47:29.858Z,99859.16
2023-03-15T10:52:39.818Z,99853.66
2023-03-15T10:58:11.263Z,99839.03
2023-03-15T11:17:02.387Z,99809.88
2023-03-15T11:22:02.734Z,99792.63
2023-03-15T11:32:40.314Z,99777.13
2023-03-15T11:37:42.506Z,99762.88
2023-03-15T11:42:44.545Z,99761.50
2023-03-15T11:47:45.186Z,99750.50
2023-03-15T11:52:43.224Z,99754.25
2023-03-15T11:57:41.625Z,99757.38
2023-03-15T12:02:48.566Z,99730.06
2023-03-15T12:07:59.141Z,99753.00
2023-03-15T12:18:43.765Z,99750.78
2023-03-15T12:23:46.280Z,99761.00
2023-03-15T12:28:50.430Z,99748.72
2023-03-15T12:33:50.718Z,99748.31
2023-03-15T12:39:00.450Z,99739.09
2023-03-15T12:44:17.924Z,99739.22
2023-03-15T12:49:27.944Z,99734.53
2023-03-15T12:54:30.897Z,99727.16
2023-03-15T12:59:32.908Z,99724.41
2023-03-15T13:04:35.771Z,99711.31
2023-03-15T13:09:51.466Z,99712.69
2023-03-15T13:14:59.608Z,99719.31
2023-03-15T13:20:13.311Z,99723.97
2023-03-15T13:25:15.497Z,99731.03
2023-03-15T13:30:42.257Z,99727.47
2023-03-15T13:35:43.927Z,99719.22
2023-03-15T13:40:48.129Z,99732.31
2023-03-15T13:45:45.202Z,99736.13
2023-03-15T13:50:41.916Z,99730.66
2023-03-15T13:55:39.310Z,99723.91
2023-03-15T14:00:37.037Z,99703.88
2023-03-15T14:05:36.087Z,99731.31
2023-03-15T14:10:34.551Z,99724.47
2023-03-15T14:15:36.466Z,99715.03
2023-03-15T14:20:38.717Z,99728.00
2023-03-15T14:25:36.391Z,99722.63
2023-03-15T14:30:35.149Z,99720.72
2023-03-15T14:35:41.088Z,99717.91
2023-03-15T14:40:38.949Z,99721.03
2023-03-15T14:45:37.573Z,99722.19
2023-03-15T14:50:36.782Z,99722.06
2023-03-15T14:55:35.256Z,99715.91
2023-03-15T15:00:32.960Z,99715.50
2023-03-15T15:05:30.303Z,99719.22
2023-03-15T15:10:27.984Z,99720.38
2023-03-15T15:15:26.133Z,99721.53
2023-03-15T15:20:22.950Z,99702.69
2023-03-15T15:25:20.601Z,99710.75
2023-03-15T15:30:20.078Z,99717.53
2023-03-15T15:35:17.653Z,99728.53
2023-03-15T15:40:17.047Z,99726.00
2023-03-15T15:45:15.670Z,99733.59
2023-03-15T15:50:13.877Z,99722.72
2023-03-15T15:55:11.896Z,99723.78
2023-03-15T16:00:12.518Z,99723.88
2023-03-15T16:05:11.088Z,99728.84
2023-03-15T16:10:19.236Z,99734.13
2023-03-15T16:15:16.972Z,99744.47
2023-03-15T16:20:18.216Z,99746.56
2023-03-15T16:25:17.660Z,99754.81
2023-03-15T16:30:19.999Z,99759.06
2023-03-15T16:35:16.669Z,99754.94
2023-03-15T16:40:15.568Z,99742.75
2023-03-15T16:45:15.444Z,99750.66
2023-03-15T16:50:12.623Z,99753.53
2023-03-15T16:55:12.031Z,99752.13
2023-03-15T17:00:19.720Z,99759.34
2023-03-15T17:05:19.184Z,99772.00
2023-03-15T17:10:22.579Z,99786.06
2023-03-15T17:15:21.248Z,99788.13
2023-03-15T17:20:21.909Z,99788.72
2023-03-15T17:25:19.182Z,99783.75
2023-03-15T17:30:17.189Z,99783.16
2023-03-15T17:35:14.241Z,99796.56
2023-03-15T17:40:17.470Z,99796.72
2023-03-15T17:45:15.375Z,99794.81
2023-03-15T17:50:12.414Z,99800.59
2023-03-15T17:55:13.892Z,99817.47
2023-03-15T18:00:15.894Z,99821.44
2023-03-15T18:05:14.612Z,99827.13
2023-03-15T18:10:11.850Z,99832.25
2023-03-15T18:15:13.547Z,99835.25
2023-03-15T18:20:13.234Z,99838.44
2023-03-15T18:25:14.246Z,99840.75
2023-03-15T18:30:26.258Z,99844.78
2023-03-15T18:35:24.492Z,99850.34
2023-03-15T18:40:21.602Z,99852.38
2023-03-15T18:45:19.824Z,99862.59
2023-03-15T18:50:16.947Z,99871.66
2023-03-15T18:55:15.251Z,99877.84
2023-03-15T19:00:13.079Z,99883.47
2023-03-15T19:05:11.072Z,99874.81
2023-03-15T19:10:09.714Z,99892.59
2023-03-15T19:15:09.999Z,99902.22
2023-03-15T19:20:07.886Z,99911.69
2023-03-15T19:25:17.653Z,99912.31
2023-03-15T19:30:18.292Z,99921.16
2023-03-15T19:35:16.500Z,99916.34
2023-03-15T19:40:14.935Z,99939.69
2023-03-15T19:45:11.869Z,99915.69
2023-03-15T19:50:10.565Z,99940.56
2023-03-15T19:55:08.352Z,99954.63
2023-03-15T20:00:05.667Z,99956.84
2023-03-15T20:05:03.546Z,99965.81
2023-03-15T20:10:00.777Z,99971.47
2023-03-15T20:15:00.295Z,99972.00
2023-03-15T20:19:56.888Z,99963.81
2023-03-15T20:24:53.435Z,99964.28
2023-03-15T20:29:51.276Z,99961.91
2023-03-15T20:34:47.883Z,99991.22
2023-03-15T20:39:44.591Z,99993.53
2023-03-15T20:44:44.234Z,99996.22
2023-03-15T20:49:44.127Z,100002.84
2023-03-15T20:54:40.868Z,100007.16
2023-03-15T20:59:38.008Z,100011.13
2023-03-15T21:04:34.872Z,100006.47
2023-03-15T21:09:32.444Z,100012.72
2023-03-15T21:14:29.294Z,100013.19
2023-03-15T21:19:26.063Z,100022.97
2023-03-15T21:24:22.768Z,100028.06
2023-03-15T21:29:20.034Z,100026.19
2023-03-15T21:34:17.039Z,100035.81
2023-03-15T21:39:13.649Z,100024.66
2023-03-15T21:44:10.926Z,100037.81
2023-03-15T21:49:09.974Z,100050.72
2023-03-15T21:54:07.875Z,100057.75
2023-03-15T21:59:04.497Z,100063.72
2023-03-15T22:04:01.025Z,100063.56
2023-03-15T22:08:58.535Z,100064.03
2023-03-15T22:13:55.109Z,100073.00
2023-03-15T22:18:52.068Z,100068.81
2023-03-15T22:23:48.924Z,100077.38
2023-03-15T22:28:48.156Z,100084.69
2023-03-15T22:33:44.801Z,100093.94
2023-03-15T22:38:41.932Z,100089.09
2023-03-15T22:43:38.878Z,100098.97
2023-03-15T22:48:39.343Z,100104.41
2023-03-15T22:53:36.104Z,100079.56
2023-03-15T22:58:32.871Z,100101.97
2023-03-15T23:03:32.086Z,100086.69
2023-03-15T23:08:29.547Z,100109.56
2023-03-15T23:13:26.295Z,100107.25
2023-03-15T23:18:22.939Z,100120.09
2023-03-15T23:23:19.606Z,100124.28
2023-03-15T23:28:18.791Z,100127.97
2023-03-15T23:33:15.473Z,100137.88
2023-03-15T23:38:13.140Z,100128.31
2023-03-15T23:43:09.860Z,100131.19
2023-03-15T23:48:07.459Z,100135.13
2023-03-15T23:53:04.399Z,100133.50
2023-03-15T23:58:02.395Z,100150.38
